Time;durP1;ratioP1;P1;durP2;ratioP2;P2;SDS_P1;SDS_P2;PMS_P1;PMS_P2;Temp;Humidity;BMP_temperature;BMP_pressure;BME280_temperature;BME280_humidity;BME280_pressure;Samples;Min_cycle;Max_cycle;Signal;HPM_P1;HPM_P2
2021/12/24 00:02:19;;;;;;;32.35;15.82;;;7.00;99.90;;;;;;4989924;28;20026;-83
2021/12/24 00:04:44;;;;;;;32.58;17.00;;;7.00;99.90;;;;;;4973607;28;20034;-84
2021/12/24 00:07:10;;;;;;;25.52;14.60;;;7.00;99.90;;;;;;4993849;28;20049;-84
2021/12/24 00:09:36;;;;;;;27.38;15.98;;;7.00;99.90;;;;;;4990695;28;20072;-83
2021/12/24 00:12:10;;;;;;;25.05;14.07;;;7.00;99.90;;;;;;4980773;28;20038;-84
2021/12/24 00:14:35;;;;;;;24.42;13.82;;;7.10;99.90;;;;;;4985961;28;20034;-84
2021/12/24 00:17:04;;;;;;;28.40;16.50;;;7.10;99.90;;;;;;4985326;28;20109;-84
2021/12/24 00:22:58;;;;;;;30.88;17.42;;;7.10;99.90;;;;;;4978502;28;20029;-83
2021/12/24 00:36:27;;;;;;;32.05;15.65;;;7.20;99.90;;;;;;4982054;28;20041;-83
2021/12/24 00:38:53;;;;;;;25.90;13.75;;;7.20;99.90;;;;;;4983685;28;20015;-84
2021/12/24 00:41:18;;;;;;;24.33;14.02;;;7.20;99.90;;;;;;4999760;28;20038;-84
2021/12/24 00:43:45;;;;;;;23.98;13.20;;;7.20;99.90;;;;;;4956684;28;20117;-83
2021/12/24 00:46:11;;;;;;;23.23;12.43;;;7.20;99.90;;;;;;4992243;28;20030;-84
2021/12/24 00:48:36;;;;;;;20.70;10.77;;;7.20;99.90;;;;;;4984887;28;20046;-84
2021/12/24 00:56:07;;;;;;;30.80;15.25;;;7.20;99.90;;;;;;4980608;28;20664;-84
2021/12/24 00:58:33;;;;;;;24.48;14.10;;;7.30;99.90;;;;;;4964207;28;20038;-83
2021/12/24 01:00:59;;;;;;;23.75;13.30;;;7.30;99.90;;;;;;4996325;28;20038;-84
2021/12/24 01:03:24;;;;;;;23.27;13.80;;;7.30;99.90;;;;;;4968177;28;20039;-84
2021/12/24 01:05:50;;;;;;;24.73;13.15;;;7.30;99.90;;;;;;4966283;28;20042;-83
2021/12/24 01:08:16;;;;;;;21.38;11.23;;;7.30;99.90;;;;;;4966905;28;20551;-83
2021/12/24 01:10:47;;;;;;;24.08;13.00;;;7.30;99.90;;;;;;4956951;28;20466;-84
2021/12/24 01:13:12;;;;;;;20.88;10.18;;;7.30;99.90;;;;;;4977889;28;20121;-84
2021/12/24 01:15:49;;;;;;;21.52;11.23;;;7.40;99.90;;;;;;4982129;28;20114;-84
2021/12/24 01:18:25;;;;;;;18.17;9.35;;;7.40;99.90;;;;;;4990464;28;20097;-83
2021/12/24 01:20:59;;;;;;;;;;;7.40;99.90;;;;;;4958095;28;20045;-84
2021/12/24 01:23:44;;;;;;;16.42;9.75;;;7.40;99.90;;;;;;4983095;28;19916;-84
2021/12/24 01:26:14;;;;;;;19.40;12.57;;;7.40;99.90;;;;;;4974646;28;20695;-84
2021/12/24 01:39:38;;;;;;;14.48;8.40;;;7.40;99.90;;;;;;4990539;28;20439;-83
2021/12/24 01:44:49;;;;;;;14.02;9.07;;;7.40;99.90;;;;;;4991769;28;20092;-83
2021/12/24 01:47:15;;;;;;;22.63;12.35;;;7.50;99.90;;;;;;4989416;28;20053;-83
2021/12/24 01:49:41;;;;;;;15.07;8.32;;;7.50;99.90;;;;;;4992967;28;20552;-83
2021/12/24 01:52:06;;;;;;;14.93;8.73;;;7.40;99.90;;;;;;4960420;28;20046;-83
2021/12/24 01:54:32;;;;;;;11.63;7.22;;;7.50;99.90;;;;;;5002680;28;20134;-83
2021/12/24 01:56:58;;;;;;;20.83;10.38;;;7.50;99.90;;;;;;5005020;28;20034;-83
2021/12/24 01:59:24;;;;;;;21.23;12.15;;;7.50;99.90;;;;;;4989782;28;20088;-83
2021/12/24 02:01:49;;;;;;;13.68;7.88;;;7.50;99.90;;;;;;4999400;28;20053;-83
2021/12/24 02:04:16;;;;;;;15.75;9.15;;;7.50;99.90;;;;;;5004168;28;20444;-83
2021/12/24 02:06:42;;;;;;;18.73;12.07;;;7.50;99.90;;;;;;4989937;28;20088;-83
2021/12/24 02:09:08;;;;;;;18.98;14.80;;;7.50;99.90;;;;;;5000903;28;20604;-84
2021/12/24 02:11:37;;;;;;;17.77;9.38;;;7.50;99.90;;;;;;4979718;28;20043;-83
2021/12/24 02:14:07;;;;;;;18.88;9.10;;;7.50;99.90;;;;;;4995414;28;20057;-84
2021/12/24 02:16:44;;;;;;;13.15;7.60;;;7.60;99.90;;;;;;4974765;28;20548;-83
2021/12/24 02:30:07;;;;;;;30.15;19.42;;;7.60;99.90;;;;;;4986056;28;20029;-83
2021/12/24 02:32:33;;;;;;;27.35;17.58;;;7.60;99.90;;;;;;4993058;28;20039;-84
2021/12/24 02:34:58;;;;;;;29.42;19.42;;;7.60;99.90;;;;;;4982475;28;20037;-83
2021/12/24 02:37:24;;;;;;;25.42;15.95;;;7.60;99.90;;;;;;4990211;28;20117;-83
2021/12/24 02:39:49;;;;;;;23.83;15.68;;;7.60;99.90;;;;;;5002325;28;20057;-83
2021/12/24 02:42:17;;;;;;;33.10;19.45;;;7.60;99.90;;;;;;4958689;28;20027;-83
2021/12/24 02:44:43;;;;;;;27.23;14.50;;;7.60;99.90;;;;;;4998349;28;20045;-83
2021/12/24 02:55:10;;;;;;;31.60;17.65;;;7.70;99.90;;;;;;5001543;28;20068;-84
2021/12/24 02:57:37;;;;;;;29.23;17.88;;;7.60;99.90;;;;;;4980057;28;20087;-84
2021/12/24 03:00:14;;;;;;;30.73;17.73;;;7.70;99.90;;;;;;4988328;28;20446;-83
2021/12/24 03:02:39;;;;;;;24.13;14.15;;;7.70;99.90;;;;;;4983735;28;20120;-83
2021/12/24 03:05:06;;;;;;;25.60;14.40;;;7.70;99.90;;;;;;4980070;28;20134;-83
2021/12/24 03:07:31;;;;;;;20.42;11.52;;;7.70;99.90;;;;;;4972341;28;20482;-84
2021/12/24 03:09:59;;;;;;;19.35;13.45;;;7.70;99.90;;;;;;4973709;28;20066;-84
2021/12/24 03:12:25;;;;;;;29.15;19.27;;;7.70;99.90;;;;;;4980927;28;20030;-83
2021/12/24 03:14:50;;;;;;;29.80;17.95;;;7.70;99.90;;;;;;5000550;28;20037;-84
2021/12/24 03:17:20;;;;;;;27.75;14.88;;;7.70;99.90;;;;;;4990733;28;20367;-83
2021/12/24 03:19:45;;;;;;;26.73;13.38;;;7.80;99.90;;;;;;5000621;28;20030;-83
2021/12/24 03:24:55;;;;;;;26.98;15.52;;;7.80;99.90;;;;;;4994477;28;20752;-84
2021/12/24 03:27:22;;;;;;;21.92;11.32;;;7.80;99.90;;;;;;4984497;28;20030;-83
2021/12/24 03:29:48;;;;;;;24.67;16.52;;;7.70;99.90;;;;;;4983683;28;20034;-84
2021/12/24 03:32:14;;;;;;;26.13;15.55;;;7.80;99.90;;;;;;4986720;28;20042;-84
2021/12/24 03:34:39;;;;;;;26.63;13.35;;;7.80;99.90;;;;;;4979477;28;20054;-84
2021/12/24 03:37:05;;;;;;;26.55;16.85;;;7.80;99.90;;;;;;5001760;28;20030;-84
2021/12/24 03:39:30;;;;;;;36.30;24.63;;;7.80;99.90;;;;;;4962642;28;20038;-84
2021/12/24 03:41:56;;;;;;;28.05;15.25;;;7.80;99.90;;;;;;4971736;28;20088;-84
2021/12/24 03:44:30;;;;;;;25.45;14.73;;;7.80;99.90;;;;;;4984885;28;20058;-83
2021/12/24 03:47:03;;;;;;;28.88;13.88;;;7.80;99.90;;;;;;4971423;28;20045;-84
2021/12/24 03:49:35;;;;;;;34.53;19.42;;;7.80;99.90;;;;;;4977347;28;20096;-83
2021/12/24 03:54:56;;;;;;;35.75;20.73;;;7.80;99.90;;;;;;4978374;28;20054;-83
2021/12/24 03:57:29;;;;;;;22.15;12.80;;;7.80;99.90;;;;;;4980805;28;20042;-84
2021/12/24 03:59:56;;;;;;;38.35;21.23;;;7.80;99.90;;;;;;4972956;28;20038;-84
2021/12/24 04:02:21;;;;;;;42.97;24.40;;;7.80;99.90;;;;;;4979171;28;20053;-83
2021/12/24 04:04:47;;;;;;;33.97;18.42;;;7.80;99.90;;;;;;4993405;28;20038;-84
2021/12/24 04:07:13;;;;;;;22.52;12.45;;;7.80;99.90;;;;;;4972408;28;20058;-84
2021/12/24 04:09:45;;;;;;;32.38;16.20;;;7.80;99.90;;;;;;4997967;28;20053;-84
2021/12/24 04:12:11;;;;;;;30.75;15.57;;;7.80;99.90;;;;;;4957751;28;20033;-83
2021/12/24 04:14:36;;;;;;;28.27;15.98;;;7.80;99.90;;;;;;4952169;28;20034;-83
2021/12/24 04:17:02;;;;;;;33.22;16.17;;;7.80;99.90;;;;;;4996952;28;20035;-83
2021/12/24 04:24:56;;;;;;;32.42;17.98;;;7.90;99.90;;;;;;4992065;28;20048;-83
2021/12/24 04:27:24;;;;;;;31.73;16.45;;;7.80;99.90;;;;;;4986134;28;20530;-83
2021/12/24 04:29:50;;;;;;;20.17;11.00;;;7.90;99.90;;;;;;4990693;28;20713;-83
2021/12/24 04:32:19;;;;;;;30.27;17.55;;;7.80;99.90;;;;;;4983116;28;20121;-83
2021/12/24 04:34:49;;;;;;;29.73;16.50;;;7.90;99.90;;;;;;4960138;28;20035;-82
2021/12/24 04:51:17;;;;;;;28.45;15.70;;;7.90;99.90;;;;;;5016118;28;20029;-83
2021/12/24 05:04:31;;;;;;;44.10;20.05;;;7.90;99.90;;;;;;4997959;28;20037;-83
2021/12/24 05:07:06;;;;;;;42.60;22.38;;;7.90;99.90;;;;;;4985196;28;20023;-83
2021/12/24 05:09:32;;;;;;;36.40;20.07;;;7.90;99.90;;;;;;4970048;28;20027;-83
2021/12/24 05:11:58;;;;;;;43.10;26.30;;;7.90;99.90;;;;;;4983956;28;20262;-83
2021/12/24 05:14:23;;;;;;;40.08;25.83;;;8.00;99.90;;;;;;4976417;28;20105;-83
2021/12/24 05:16:52;;;;;;;44.58;23.75;;;7.90;99.90;;;;;;4991819;28;20034;-83
2021/12/24 05:22:02;;;;;;;44.28;20.13;;;7.90;99.90;;;;;;4999502;28;20056;-82
2021/12/24 05:24:30;;;;;;;42.70;27.08;;;7.90;99.90;;;;;;4966113;28;20026;-83
2021/12/24 05:27:00;;;;;;;50.90;27.42;;;7.90;99.90;;;;;;4982560;28;20491;-82
2021/12/24 05:29:26;;;;;;;38.42;18.80;;;7.90;99.90;;;;;;4987578;28;20085;-82
2021/12/24 05:31:51;;;;;;;29.75;17.67;;;7.90;99.90;;;;;;4992368;28;20030;-83
2021/12/24 05:34:18;;;;;;;60.05;32.88;;;7.90;99.90;;;;;;4992191;28;20026;-83
2021/12/24 05:36:45;;;;;;;55.50;31.95;;;7.90;99.90;;;;;;4979361;28;20034;-84
2021/12/24 05:39:14;;;;;;;45.38;24.00;;;7.90;99.90;;;;;;4967518;28;20031;-83
2021/12/24 05:41:40;;;;;;;25.75;16.42;;;7.90;99.90;;;;;;4969591;28;20057;-83
2021/12/24 05:44:08;;;;;;;26.15;12.95;;;7.90;99.90;;;;;;4986027;28;20068;-83
2021/12/24 05:46:34;;;;;;;42.67;21.20;;;7.90;99.90;;;;;;4973455;28;20038;-83
2021/12/24 05:48:59;;;;;;;42.05;21.25;;;7.80;99.90;;;;;;4997090;28;20038;-83
2021/12/24 05:51:25;;;;;;;40.60;21.48;;;7.90;99.90;;;;;;4989392;28;20072;-83
2021/12/24 05:53:50;;;;;;;51.08;29.08;;;7.90;99.90;;;;;;4982836;28;20026;-84
2021/12/24 05:56:16;;;;;;;37.58;20.08;;;7.80;99.90;;;;;;4989974;28;20034;-83
2021/12/24 05:58:42;;;;;;;38.67;21.80;;;7.90;99.90;;;;;;4989491;28;20034;-83
2021/12/24 06:01:07;;;;;;;51.20;27.02;;;7.90;99.90;;;;;;4963712;28;20113;-83
2021/12/24 06:03:33;;;;;;;43.85;18.77;;;7.90;99.90;;;;;;4969735;28;20126;-83
2021/12/24 06:05:59;;;;;;;52.08;24.40;;;7.90;99.90;;;;;;4988636;28;20038;-83
2021/12/24 06:08:24;;;;;;;29.95;13.73;;;7.90;99.90;;;;;;4989157;28;20458;-83
2021/12/24 06:10:50;;;;;;;57.55;28.52;;;7.90;99.90;;;;;;5005122;28;20030;-83
2021/12/24 06:13:15;;;;;;;44.75;24.40;;;7.90;99.90;;;;;;4951646;28;20121;-84
2021/12/24 06:15:44;;;;;;;58.30;31.10;;;7.90;99.90;;;;;;4999980;28;20034;-83
2021/12/24 06:18:19;;;;;;;45.92;22.55;;;7.90;99.90;;;;;;4997260;28;20122;-83
2021/12/24 06:20:45;;;;;;;43.45;20.83;;;7.90;99.90;;;;;;4988255;28;20046;-83
2021/12/24 06:23:10;;;;;;;33.47;18.48;;;7.90;99.90;;;;;;4990176;28;20026;-84
2021/12/24 06:25:36;;;;;;;55.10;28.90;;;7.90;99.90;;;;;;4993659;28;20042;-84
2021/12/24 06:28:02;;;;;;;42.30;22.25;;;7.90;99.90;;;;;;4978005;28;20037;-83
2021/12/24 06:30:29;;;;;;;49.80;26.70;;;7.90;99.90;;;;;;4993594;28;20030;-83
2021/12/24 06:32:58;;;;;;;44.35;20.52;;;8.00;99.90;;;;;;4976272;28;20038;-83
2021/12/24 06:35:24;;;;;;;31.92;19.02;;;7.90;99.90;;;;;;4955781;28;20058;-83
2021/12/24 06:37:53;;;;;;;41.20;21.52;;;7.90;99.90;;;;;;4995555;28;20093;-83
2021/12/24 06:40:18;;;;;;;45.30;26.17;;;7.90;99.90;;;;;;4998624;28;20042;-83
2021/12/24 06:42:44;;;;;;;30.83;15.15;;;7.90;99.90;;;;;;4968468;28;20403;-83
2021/12/24 06:45:10;;;;;;;58.13;31.10;;;7.90;99.90;;;;;;4985022;28;20450;-83
2021/12/24 06:47:35;;;;;;;54.92;26.88;;;7.90;99.90;;;;;;4989478;28;20038;-83
2021/12/24 06:50:01;;;;;;;44.72;23.05;;;7.90;99.90;;;;;;4984959;28;20027;-82
2021/12/24 06:52:27;;;;;;;54.22;29.75;;;7.90;99.90;;;;;;4964293;28;20028;-83
2021/12/24 06:54:52;;;;;;;38.72;17.80;;;7.90;99.90;;;;;;4970573;28;20414;-83
2021/12/24 06:57:19;;;;;;;45.90;23.40;;;7.90;99.90;;;;;;4989657;28;20076;-83
2021/12/24 06:59:46;;;;;;;29.60;16.10;;;7.90;99.90;;;;;;4992106;28;20030;-84
2021/12/24 07:02:11;;;;;;;39.53;21.20;;;7.90;99.90;;;;;;4970875;28;20084;-83
2021/12/24 07:04:37;;;;;;;45.30;21.05;;;7.90;99.90;;;;;;5001126;28;20026;-84
2021/12/24 07:07:02;;;;;;;40.28;19.02;;;7.90;99.90;;;;;;4988053;28;20036;-83
2021/12/24 07:09:28;;;;;;;39.67;20.40;;;7.90;99.90;;;;;;4975030;28;20092;-84
2021/12/24 07:11:54;;;;;;;36.03;19.83;;;7.90;99.90;;;;;;4998992;28;20121;-83
2021/12/24 07:14:19;;;;;;;27.98;14.50;;;8.00;99.90;;;;;;4984327;28;20027;-84
2021/12/24 07:16:45;;;;;;;32.28;15.63;;;8.00;99.90;;;;;;4975512;28;20510;-83
2021/12/24 07:19:10;;;;;;;31.13;15.70;;;8.00;99.90;;;;;;4968061;28;20129;-83
2021/12/24 07:21:36;;;;;;;40.83;20.08;;;8.00;99.90;;;;;;4984093;28;20052;-83
2021/12/24 07:24:02;;;;;;;34.38;17.42;;;8.00;99.90;;;;;;4982711;28;20058;-83
2021/12/24 07:26:28;;;;;;;37.45;19.45;;;8.00;99.90;;;;;;4964689;28;20037;-84
2021/12/24 07:28:53;;;;;;;39.53;19.02;;;8.00;99.90;;;;;;4988530;28;20385;-84
2021/12/24 07:31:20;;;;;;;44.25;20.38;;;7.90;99.90;;;;;;4990261;28;20517;-83
2021/12/24 07:33:45;;;;;;;46.85;18.13;;;8.00;99.90;;;;;;4990774;28;20575;-83
2021/12/24 07:36:11;;;;;;;40.28;19.75;;;8.00;99.90;;;;;;5011778;28;20043;-83
2021/12/24 07:38:37;;;;;;;32.00;17.35;;;8.00;99.90;;;;;;4985709;28;20069;-84
2021/12/24 07:41:03;;;;;;;54.47;22.02;;;8.00;99.90;;;;;;4973773;28;20084;-84
2021/12/24 07:43:29;;;;;;;46.50;19.90;;;8.00;99.90;;;;;;4967292;28;20030;-84
2021/12/24 07:45:55;;;;;;;38.53;18.83;;;8.00;99.90;;;;;;4964579;28;20069;-83
2021/12/24 07:48:28;;;;;;;43.90;19.48;;;8.00;99.90;;;;;;4979677;28;20105;-84
2021/12/24 07:53:19;;;;;;;34.35;16.05;;;8.10;99.90;;;;;;4987178;28;20126;-85
2021/12/24 07:55:45;;;;;;;36.22;21.10;;;8.00;99.90;;;;;;4986817;28;20054;-85
2021/12/24 07:58:11;;;;;;;37.85;17.70;;;8.00;99.90;;;;;;4969953;28;20118;-85
2021/12/24 08:00:37;;;;;;;36.40;18.23;;;8.10;99.90;;;;;;4984685;28;20042;-84
2021/12/24 08:03:03;;;;;;;30.40;14.45;;;8.00;99.90;;;;;;4989229;28;20818;-85
2021/12/24 08:05:34;;;;;;;31.48;14.43;;;8.00;99.90;;;;;;4986118;28;20042;-85
2021/12/24 08:08:00;;;;;;;39.95;20.70;;;8.00;99.90;;;;;;4986294;28;20482;-85
2021/12/24 08:10:27;;;;;;;46.20;20.90;;;8.00;99.90;;;;;;4971846;28;20171;-84
2021/12/24 08:12:52;;;;;;;39.70;20.95;;;8.00;99.90;;;;;;4956572;28;20043;-84
2021/12/24 08:15:18;;;;;;;35.65;16.45;;;8.00;99.90;;;;;;4974998;28;20495;-84
2021/12/24 08:17:44;;;;;;;28.30;13.95;;;8.00;99.90;;;;;;4987189;28;20533;-84
2021/12/24 08:20:10;;;;;;;39.20;18.15;;;8.00;99.90;;;;;;4981228;28;20038;-84
2021/12/24 08:22:36;;;;;;;47.70;18.75;;;8.00;99.90;;;;;;4984986;28;20384;-84
2021/12/24 08:25:04;;;;;;;43.53;16.25;;;8.10;99.90;;;;;;4995869;28;20034;-84
2021/12/24 08:27:30;;;;;;;25.48;14.00;;;8.00;99.90;;;;;;4976793;28;20113;-84
2021/12/24 08:29:56;;;;;;;30.42;16.65;;;8.10;99.90;;;;;;4989952;28;20525;-83
2021/12/24 08:32:21;;;;;;;51.85;26.20;;;8.10;99.90;;;;;;4967403;28;20031;-84
2021/12/24 08:34:49;;;;;;;41.42;20.58;;;8.10;99.90;;;;;;4956414;28;20382;-84
2021/12/24 08:37:14;;;;;;;27.35;13.82;;;8.10;99.90;;;;;;4988392;28;20026;-84
2021/12/24 08:39:40;;;;;;;30.33;15.93;;;8.10;99.90;;;;;;4984499;28;20035;-84
2021/12/24 08:42:05;;;;;;;34.42;18.00;;;8.10;99.90;;;;;;4984363;28;20026;-83
2021/12/24 08:44:31;;;;;;;24.80;11.48;;;8.10;99.90;;;;;;4990388;28;20506;-83
2021/12/24 08:47:01;;;;;;;36.72;17.63;;;8.10;99.90;;;;;;4973613;28;20069;-84
2021/12/24 08:49:27;;;;;;;26.08;13.40;;;8.10;99.90;;;;;;4968804;28;20492;-84
2021/12/24 08:51:52;;;;;;;43.25;16.00;;;8.10;99.90;;;;;;4985728;28;20045;-82
2021/12/24 08:54:18;;;;;;;36.22;16.05;;;8.10;99.90;;;;;;4988064;28;20061;-82
2021/12/24 08:56:44;;;;;;;40.75;16.90;;;8.20;99.90;;;;;;4992985;28;20034;-83
2021/12/24 08:59:10;;;;;;;35.42;15.45;;;8.20;99.90;;;;;;4980624;28;20030;-82
2021/12/24 09:01:35;;;;;;;49.35;21.80;;;8.20;99.90;;;;;;4982540;28;20053;-83
2021/12/24 09:04:01;;;;;;;37.40;16.83;;;8.20;99.90;;;;;;4987010;28;20038;-82
2021/12/24 09:06:27;;;;;;;30.35;16.13;;;8.10;99.90;;;;;;4962000;28;20157;-82
2021/12/24 09:08:52;;;;;;;40.60;19.27;;;8.20;99.90;;;;;;4989428;28;20054;-82
2021/12/24 09:11:18;;;;;;;38.40;15.68;;;8.20;99.90;;;;;;4987664;28;20047;-82
2021/12/24 09:13:43;;;;;;;60.35;24.38;;;8.20;99.90;;;;;;4972275;28;20086;-82
2021/12/24 09:16:09;;;;;;;43.70;18.10;;;8.20;99.90;;;;;;4992402;28;20065;-82
2021/12/24 09:18:36;;;;;;;37.25;16.25;;;8.20;99.90;;;;;;4969516;28;20086;-82
2021/12/24 09:21:03;;;;;;;35.83;17.33;;;8.20;99.90;;;;;;4978393;28;20517;-82
2021/12/24 09:23:28;;;;;;;55.03;24.42;;;8.20;99.90;;;;;;5004911;28;20041;-82
2021/12/24 09:25:54;;;;;;;50.67;23.05;;;8.20;99.90;;;;;;5001529;28;20034;-82
2021/12/24 09:28:20;;;;;;;44.25;17.25;;;8.20;99.90;;;;;;4990270;28;20417;-82
2021/12/24 09:30:46;;;;;;;37.58;16.15;;;8.20;99.90;;;;;;4997028;28;20734;-82
2021/12/24 09:33:11;;;;;;;32.40;15.13;;;8.20;99.90;;;;;;4985520;28;20041;-82
2021/12/24 09:35:37;;;;;;;29.45;13.45;;;8.20;99.90;;;;;;4973402;28;20042;-82
2021/12/24 09:38:03;;;;;;;47.15;12.43;;;8.20;99.90;;;;;;4971360;28;20030;-82
2021/12/24 09:40:30;;;;;;;36.03;13.95;;;8.20;99.90;;;;;;4977767;28;20042;-82
2021/12/24 09:42:56;;;;;;;35.35;16.35;;;8.10;99.90;;;;;;4975911;28;20030;-82
2021/12/24 09:45:22;;;;;;;39.33;15.85;;;8.20;99.90;;;;;;4989864;28;20121;-82
2021/12/24 09:47:47;;;;;;;49.17;20.65;;;8.20;99.90;;;;;;4985069;28;20072;-82
2021/12/24 09:50:16;;;;;;;33.38;14.95;;;8.20;99.90;;;;;;4991412;28;20034;-82
2021/12/24 09:52:44;;;;;;;25.73;11.95;;;8.20;99.90;;;;;;4984862;28;20113;-82
2021/12/24 09:55:12;;;;;;;37.42;15.75;;;8.20;99.90;;;;;;4987936;28;20034;-82
2021/12/24 09:57:37;;;;;;;44.58;22.52;;;8.20;99.90;;;;;;4984922;28;20034;-82
2021/12/24 10:00:05;;;;;;;48.47;16.77;;;8.20;99.90;;;;;;4986487;28;20080;-82
2021/12/24 10:02:41;;;;;;;30.83;14.10;;;8.30;99.90;;;;;;4965499;28;20525;-82
2021/12/24 10:05:37;;;;;;;33.80;15.48;;;8.30;99.90;;;;;;4986271;28;20509;-83
2021/12/24 10:08:20;;;;;;;30.33;13.38;;;8.30;99.90;;;;;;4997598;28;20025;-82
2021/12/24 10:10:48;;;;;;;37.05;14.43;;;8.30;99.90;;;;;;4968295;28;20748;-82
2021/12/24 10:13:37;;;;;;;33.55;14.75;;;8.40;99.90;;;;;;4971147;28;20022;-81
2021/12/24 10:16:18;;;;;;;45.80;15.00;;;8.40;99.90;;;;;;5003379;28;20077;-82
2021/12/24 10:18:48;;;;;;;39.70;18.27;;;8.40;99.90;;;;;;4989750;28;20046;-82
2021/12/24 10:21:23;;;;;;;39.53;17.75;;;8.40;99.90;;;;;;4989397;28;20037;-82
2021/12/24 10:23:53;;;;;;;36.20;16.38;;;8.50;99.90;;;;;;4992757;28;20049;-82
2021/12/24 10:26:30;;;;;;;41.25;19.83;;;8.50;99.90;;;;;;4995175;28;20030;-82
2021/12/24 10:29:09;;;;;;;34.78;13.85;;;8.50;99.90;;;;;;4967222;28;20453;-82
2021/12/24 10:31:46;;;;;;;27.52;13.68;;;8.50;99.90;;;;;;4979667;28;20075;-82
2021/12/24 10:34:20;;;;;;;29.38;12.98;;;8.50;99.90;;;;;;4986160;28;20464;-82
2021/12/24 10:37:01;;;;;;;50.92;20.40;;;8.50;99.90;;;;;;5013992;28;20937;-82
2021/12/24 10:39:50;;;;;;;28.15;12.05;;;8.50;99.90;;;;;;4989204;28;20030;-82
2021/12/24 10:42:16;;;;;;;46.30;16.90;;;8.50;99.90;;;;;;4986349;28;20034;-81
2021/12/24 10:44:42;;;;;;;37.25;18.23;;;8.50;99.90;;;;;;5010256;28;20499;-83
2021/12/24 10:47:08;;;;;;;28.08;15.43;;;8.50;99.90;;;;;;4975140;28;20057;-83
2021/12/24 10:55:03;;;;;;;23.58;10.90;;;8.50;99.90;;;;;;4983839;28;20034;-83
2021/12/24 10:57:33;;;;;;;41.83;16.55;;;8.50;99.90;;;;;;5001220;28;20658;-83
2021/12/24 11:00:00;;;;;;;26.02;11.18;;;8.50;99.90;;;;;;4985476;28;20026;-83
2021/12/24 11:02:34;;;;;;;27.63;12.73;;;8.50;99.90;;;;;;4979501;28;20048;-83
2021/12/24 11:05:00;;;;;;;33.08;13.32;;;8.50;99.90;;;;;;4968491;28;20050;-83
2021/12/24 11:07:41;;;;;;;40.67;13.55;;;8.40;99.90;;;;;;4981629;28;20081;-83
2021/12/24 11:10:22;;;;;;;20.45;9.07;;;8.40;99.90;;;;;;4995088;28;20031;-84
2021/12/24 11:13:08;;;;;;;42.25;19.08;;;8.40;99.90;;;;;;4981664;28;20031;-84
2021/12/24 11:15:37;;;;;;;42.72;20.38;;;8.40;99.90;;;;;;4989371;28;20877;-83
2021/12/24 11:18:17;;;;;;;22.20;10.90;;;8.50;99.90;;;;;;4986073;28;20168;-83
2021/12/24 11:20:43;;;;;;;24.95;9.15;;;8.40;99.90;;;;;;4967522;28;20502;-82
2021/12/24 11:23:10;;;;;;;25.15;8.85;;;8.40;99.90;;;;;;4972723;28;20037;-83
2021/12/24 11:25:47;;;;;;;27.95;11.52;;;8.40;99.90;;;;;;4995273;28;20031;-83
2021/12/24 11:28:13;;;;;;;32.20;14.98;;;8.40;99.90;;;;;;4988531;28;20670;-82
2021/12/24 11:30:41;;;;;;;31.75;12.57;;;8.40;99.90;;;;;;4982368;28;20030;-83
2021/12/24 11:33:07;;;;;;;25.63;12.02;;;8.40;99.90;;;;;;5000296;28;20033;-83
2021/12/24 11:35:32;;;;;;;29.48;10.88;;;8.40;99.90;;;;;;4994211;28;20490;-83
2021/12/24 11:38:01;;;;;;;21.42;11.13;;;8.40;99.90;;;;;;4975091;28;20037;-84
2021/12/24 11:40:27;;;;;;;30.55;11.57;;;8.40;99.90;;;;;;4969821;28;20518;-84
2021/12/24 11:42:57;;;;;;;27.50;11.27;;;8.40;99.90;;;;;;4979769;28;20041;-83
2021/12/24 11:45:23;;;;;;;20.13;8.10;;;8.30;99.90;;;;;;4977017;28;20128;-84
2021/12/24 11:47:50;;;;;;;27.05;11.98;;;8.30;99.90;;;;;;4950559;28;20078;-84
2021/12/24 11:50:16;;;;;;;29.45;10.63;;;8.40;99.90;;;;;;4991650;28;20120;-84
2021/12/24 11:52:42;;;;;;;17.95;9.02;;;8.40;99.90;;;;;;4972059;28;20046;-84
2021/12/24 11:55:07;;;;;;;24.38;9.38;;;8.30;99.90;;;;;;4988613;28;20034;-84
2021/12/24 11:57:33;;;;;;;23.20;11.82;;;8.40;99.90;;;;;;4994191;28;20101;-84
2021/12/24 12:00:11;;;;;;;30.60;11.98;;;8.30;99.90;;;;;;4982938;28;20030;-84
2021/12/24 12:02:45;;;;;;;24.05;11.27;;;8.30;99.90;;;;;;4957019;28;20045;-84
2021/12/24 12:05:28;;;;;;;27.85;11.05;;;8.30;99.90;;;;;;4983247;28;20057;-84
2021/12/24 12:08:25;;;;;;;19.45;9.80;;;8.30;99.90;;;;;;4987412;28;20034;-83
2021/12/24 12:11:01;;;;;;;32.78;15.77;;;8.30;99.90;;;;;;4300134;28;10000613;-83
2021/12/24 12:14:14;;;;;;;33.25;16.88;;;8.30;99.90;;;;;;4988640;28;20682;-83
2021/12/24 12:16:42;;;;;;;27.80;15.48;;;8.30;99.90;;;;;;4985077;28;20030;-85
2021/12/24 12:19:22;;;;;;;26.80;11.30;;;8.30;99.90;;;;;;4998750;28;20057;-83
2021/12/24 12:22:15;;;;;;;23.50;12.20;;;8.30;99.90;;;;;;4963028;28;20042;-83
2021/12/24 12:24:58;;;;;;;22.63;10.80;;;8.30;99.90;;;;;;4978946;28;20042;-84
2021/12/24 12:27:33;;;;;;;42.40;18.42;;;8.30;99.90;;;;;;4995536;28;20546;-82
2021/12/24 12:30:01;;;;;;;41.90;15.57;;;8.30;99.90;;;;;;4979299;28;20042;-83
2021/12/24 12:32:37;;;;;;;26.95;11.85;;;8.30;99.90;;;;;;4978535;28;20045;-83
2021/12/24 12:35:03;;;;;;;31.58;14.55;;;8.30;99.90;;;;;;4627757;28;10000535;-83
2021/12/24 12:37:45;;;;;;;28.67;11.13;;;8.30;99.90;;;;;;4982151;28;20037;-83
2021/12/24 12:40:16;;;;;;;30.13;12.40;;;8.30;99.90;;;;;;4959141;28;20125;-84
2021/12/24 12:42:56;;;;;;;25.40;10.52;;;8.40;99.90;;;;;;5001615;28;20077;-83
2021/12/24 12:45:43;;;;;;;27.40;13.27;;;8.40;99.90;;;;;;4980470;28;20126;-83
2021/12/24 12:48:12;;;;;;;34.90;14.27;;;8.40;99.90;;;;;;4996186;28;20030;-83
2021/12/24 12:50:40;;;;;;;28.30;10.65;;;8.40;99.90;;;;;;4993156;28;20034;-83
2021/12/24 12:53:27;;;;;;;38.67;16.40;;;8.40;99.90;;;;;;4977239;28;20041;-83
2021/12/24 12:56:18;;;;;;;27.70;11.27;;;8.50;99.90;;;;;;4977715;28;20045;-83
2021/12/24 12:58:58;;;;;;;22.02;10.80;;;8.40;99.90;;;;;;4984020;28;20027;-83
2021/12/24 13:01:23;;;;;;;36.65;18.52;;;8.40;99.90;;;;;;4963941;28;20038;-83
2021/12/24 13:03:55;;;;;;;39.33;17.55;;;8.40;99.90;;;;;;4988864;28;20038;-83
2021/12/24 13:06:45;;;;;;;33.67;14.65;;;8.40;99.90;;;;;;5006118;28;20039;-83
2021/12/24 13:09:16;;;;;;;25.85;10.38;;;8.40;99.90;;;;;;4986245;28;20104;-83
2021/12/24 13:11:47;;;;;;;43.10;17.30;;;8.40;99.90;;;;;;4969435;28;20503;-83
2021/12/24 13:14:14;;;;;;;24.90;10.80;;;8.40;99.90;;;;;;4983005;28;20037;-82
2021/12/24 13:16:50;;;;;;;22.38;11.77;;;8.40;99.90;;;;;;4964548;28;20534;-82
2021/12/24 13:19:55;;;;;;;23.63;11.27;;;8.40;99.90;;;;;;4982735;28;20084;-82
2021/12/24 13:24:59;;;;;;;43.88;21.63;;;8.40;99.90;;;;;;4989969;28;20121;-83
2021/12/24 13:27:31;;;;;;;24.15;12.95;;;8.40;99.90;;;;;;4971151;28;20568;-84
2021/12/24 13:30:17;;;;;;;22.10;11.68;;;8.40;99.90;;;;;;4976621;28;20515;-83
2021/12/24 13:33:00;;;;;;;44.47;21.23;;;8.40;99.90;;;;;;4942464;28;20528;-84
2021/12/24 13:35:30;;;;;;;44.08;22.33;;;8.40;99.90;;;;;;4944835;28;20030;-83
2021/12/24 13:37:56;;;;;;;53.85;22.40;;;8.40;99.90;;;;;;4987666;28;20082;-83
2021/12/24 13:40:26;;;;;;;46.00;21.30;;;8.40;99.90;;;;;;4981284;28;20054;-83
2021/12/24 13:43:19;;;;;;;28.92;12.88;;;8.40;99.90;;;;;;4995921;28;20030;-83
2021/12/24 13:45:52;;;;;;;31.45;13.18;;;8.40;99.90;;;;;;4977751;28;20035;-83
2021/12/24 13:48:25;;;;;;;24.20;12.13;;;8.40;99.90;;;;;;4972124;28;20037;-83
2021/12/24 13:56:41;;;;;;;64.43;14.25;;;8.30;99.90;;;;;;5000635;28;20040;-83
2021/12/24 13:59:06;;;;;;;23.52;10.88;;;8.30;99.90;;;;;;4974956;28;20093;-83
2021/12/24 14:01:32;;;;;;;47.80;22.38;;;8.30;99.90;;;;;;5016923;28;20030;-83
2021/12/24 14:03:59;;;;;;;31.80;15.88;;;8.40;99.90;;;;;;4966857;28;20053;-83
2021/12/24 14:06:41;;;;;;;31.45;11.95;;;8.30;99.90;;;;;;4948196;28;20581;-83
2021/12/24 14:09:32;;;;;;;22.63;11.10;;;8.30;99.90;;;;;;4966838;28;20036;-83
2021/12/24 14:11:59;;;;;;;43.75;18.25;;;8.30;99.90;;;;;;4993324;28;20650;-82
2021/12/24 14:14:38;;;;;;;30.65;15.15;;;8.30;99.90;;;;;;4991190;28;20049;-82
2021/12/24 14:19:36;;;;;;;30.33;12.65;;;8.30;99.90;;;;;;4986029;28;20597;-83
2021/12/24 14:22:17;;;;;;;35.65;18.98;;;8.20;99.90;;;;;;4981074;28;20043;-83
2021/12/24 14:25:13;;;;;;;27.35;13.77;;;8.20;99.90;;;;;;4973249;28;20058;-83
2021/12/24 14:27:39;;;;;;;31.70;12.88;;;8.20;99.90;;;;;;4984131;28;20034;-83
2021/12/24 14:30:07;;;;;;;30.75;15.73;;;8.20;99.90;;;;;;4966408;28;20783;-85
2021/12/24 14:32:32;;;;;;;21.50;10.10;;;8.20;99.90;;;;;;4984099;28;20038;-82
2021/12/24 14:35:00;;;;;;;19.00;9.45;;;8.20;99.90;;;;;;4988891;28;20088;-83
2021/12/24 14:37:28;;;;;;;37.45;19.25;;;8.20;99.90;;;;;;4974367;28;20409;-82
2021/12/24 14:40:00;;;;;;;29.65;10.65;;;8.20;99.90;;;;;;4986200;28;20042;-83